Tiempo atmosférico en la estación meteorológica de Portocolom, Illes Balears (17 m.)



Fecha
DESCASC
Temp. máxima en grados centígrados (hora)
DESCASC
Temp. mínima en grados centígrados (hora)
DESCASC
Temp. media en grados centígrados
DESCASC
Racha de viento máxima en m/sg (hora)
DESCASC
Velocidad máxima media en intervalos de 10 minutos(hora)
DESCASC
Precipitaciones diarias en mm
DESCASC
Precipitaciones de 00:00 a 06:00 en mm
DESCASC
Precipitaciones de 06:00 a 12:00 en mm
DESCASC
Precipitaciones de 12:00 a 18:00 en mm
DESCASC
Precipitaciones de 18:00 a 24:00 en mm
DESCASC
31-03-2020 17.6 (13:40) 14.6 (00:50) 16.1 13.89 (10:20) 9.72 (23:30) 1.8 0 0 1.8 0
30-03-2020 18.2 (14:10) 11 (07:40) 14.6 9.72 (14:20) 8.06 (13:20) 0 0 0 0 0
29-03-2020 19.9 (13:50) 9.5 (00:00) 14.7 9.44 (16:50) 8.06 (16:00) 0.4 0 0 0.4 0
28-03-2020 16.8 (12:20) 9.5 (00:00) 13.1 9.17 (08:40) 5.83 (08:40) 0 0 0 0 0
27-03-2020 16.3 (15:10) 6.8 (00:00) 11.5 11.67 (02:00) 7.5 (00:30) 0 0 0 0 0
26-03-2020 12.1 (09:30) 6.5 (00:00) 9.3 13.89 (20:50) 7.5 (20:50) 25.8 0 8.6 6 11.2
25-03-2020 14.6 (14:30) 7.1 (00:00) 10.9 14.44 (01:40) 9.72 (02:50) 0 0 0 0 0
24-03-2020 15.1 (00:10) 12.1 (00:00) 13.6 15.83 (18:20) 10 (18:20) 2 0.4 1.4 0.2 0
23-03-2020 18.1 (14:30) 14.5 (00:00) 16.3 11.11 (21:40) 7.5 (21:10) 0 0 0 0 0
22-03-2020 18.8 (14:20) 12.8 (00:20) 15.8 8.61 (11:30) 6.94 (11:30) 0 0 0 0 0
21-03-2020 18.1 (14:00) 12.9 (00:00) 15.5 9.72 (01:00) 6.94 (01:00) 0 0 0 0 0
20-03-2020 17 (13:20) 13.9 (00:00) 15.4 10.56 (18:20) 7.22 (21:20) 0 0 0 0 0
19-03-2020 17.5 (13:30) 12.2 (00:00) 14.8 8.33 (23:00) 5.28 (21:50) 0 0 0 0 0
18-03-2020 17.2 (14:30) 14.4 (00:00) 15.8 10 (00:20) 6.11 (04:30) 0 0 0 0 0
17-03-2020 17.1 (13:20) 14.8 (00:00) 16 12.5 (21:00) 8.33 (19:20) 0 0 0 0 0
16-03-2020 16.7 (13:30) 14.4 (00:00) 15.6 13.06 (11:50) 7.5 (09:50) 0.6 0 0.6 0 0
15-03-2020 17.9 (15:10) 9.3 (00:00) 13.6 7.5 (21:20) 5 (21:20) 0 0 0 0 0
14-03-2020 18 (14:20) 11.1 (00:00) 14.6 7.5 (10:00) 4.72 (10:00) 2.2 2.2 0 0 0
13-03-2020 18.8 (13:50) 11.9 (05:30) 15.3 10.83 (12:10) 7.22 (12:20) 0 0 0 0 0
12-03-2020 20.3 (13:50) 10.4 (00:00) 15.3 5 (06:10) 3.61 (15:10) 0 0 0 0 0
11-03-2020 17.7 (12:20) 12.4 (00:00) 15.1 11.39 (14:20) 9.44 (14:20) 0 0 0 0 0
10-03-2020 17.2 (15:40) 10.2 (00:00) 13.7 11.39 (16:50) 7.78 (16:50) 0 0 0 0 0
09-03-2020 18 (13:00) 9.6 (00:00) 13.8 11.11 (13:20) 6.67 (13:10) 0 0 0 0 0
08-03-2020 18.9 (14:40) 8.4 (00:00) 13.6 13.06 (13:50) 10 (13:50) 0 0 0 0 0
07-03-2020 16.6 (12:30) 9.3 (00:00) 13 11.67 (00:40) 6.67 (00:40) 0 0 0 0 0
06-03-2020 18.4 (12:20) 10.7 (00:00) 14.5 17.5 (17:00) 9.72 (17:00) 0 0 0 0 0
05-03-2020 20.2 (14:50) 13.5 (00:00) 16.9 23.89 (16:00) 12.5 (16:00) 1 0 0 1 0
04-03-2020 17.5 (17:10) 8.9 (00:00) 13.2 12.78 (00:10) 9.17 (13:40) 0 0 0 0 0
03-03-2020 18.4 (22:00) 11.3 (00:00) 14.8 20.28 (15:30) 11.67 (01:30) 0.4 0 0 0.4 0
02-03-2020 18.6 (13:20) 12.5 (00:00) 15.6 21.94 (12:00) 13.89 (11:50) 5 0 3.6 1.4 0

Gráficas

Temp. máximas Temp. mínimas Temp. medias Precipitaciones Rachas de viento máximas Velocidades máximas media en intervalos de 10 minutos

Datos horarios

Fecha y hora oficial Temperatura (ºC) Velocidad del viento (km/h) Dirección del viento Racha (km/h) Dirección de racha Precipitación (mm) Presión (hPa) Tendencia (hPa) Humedad (%)
2020-03-31 23:00:00 15.2 32 Sudeste 48 Sudeste 0 1009.6 1.6 88
2020-03-31 22:00:00 15.1 28 Este 48 Este 0 1009.2 1.2 88
2020-03-31 21:00:00 15.2 30 Este 45 Este 0 1008.4 0.9 87
2020-03-31 20:00:00 15.4 21 Este 37 Este 0 1008 0.4 87
2020-03-31 19:00:00 15.7 16 Este 28 Este 0 1008 -0.1 88
2020-03-31 18:00:00 16 18 Este 26 Este 0 1007.5 -0.2 87
2020-03-31 17:00:00 16 12 Este 20 Este 0.6 1007.6 -0.4 87
2020-03-31 16:00:00 15.7 14 Sudeste 32 Sudeste 0 1008.1 -0.3 86
2020-03-31 15:00:00 15.5 19 Sudeste 38 Sudeste 1.2 1007.7 -1.5 87
2020-03-31 14:00:00 17.2 19 Este 33 Sudeste 0 1008 -0.9 76
2020-03-31 13:00:00 16.2 21 Este 37 Este 0 1008.4 -0.6 80
2020-03-31 12:00:00 15.8 20 Este 42 Este 0 1009.2 0.4 82
2020-03-31 11:00:00 15.5 27 Este 50 Este 0 1008.9 0.3 83
2020-03-31 10:00:00 15.4 25 Este 42 Este 0 1009 0.5 83
2020-03-31 09:00:00 15 23 Este 38 Este 0 1008.8 0.3 84
2020-03-31 08:00:00 14.8 22 Este 39 Este 0 1008.6 -0.4 84
2020-03-31 07:00:00 14.7 24 Este 38 Este 0 1008.5 -0.7 84
2020-03-31 06:00:00 14.8 24 Este 37 Este 0 1008.5 -1.5 83
2020-03-31 05:00:00 14.9 17 Este 28 Este 0 1009 -0.8 83
2020-03-31 04:00:00 14.8 17 Este 27 Este 0 1009.2 -1.4 83
2020-03-31 03:00:00 14.8 14 Sudeste 22 Sudeste 0 1010 -0.7 82
2020-03-31 02:00:00 14.7 16 Sudeste 26 Sudeste 0 1009.8 -0.9 80
2020-03-31 01:00:00 14.6 12 Sudeste 23 Sudeste 0 1010.6 -0.1 80
2020-03-31 00:00:00 14.7 10 Sudeste 24 Sudeste 0 1010.7 0.2 78
2020-03-30 23:00:00 14.8 15 Sudeste 23 Sudeste 0 1010.7 0.9 79
2020-03-30 22:00:00 15 10 Sur 21 Sudeste 0 1010.7 1 78
2020-03-30 21:00:00 15 11 Sur 18 Sur 0 1010.5 0.7 78
2020-03-30 20:00:00 15.2 15 Sur 23 Sur 0 1009.8 0 77
2020-03-30 19:00:00 16.2 19 Sur 24 Sudoeste 0 1009.7 -0.3 75
2020-03-30 18:00:00 17.3 23 Sudoeste 30 Sudoeste 0 1009.8 -0.4 75
2020-03-30 17:00:00 17.6 24 Sudoeste 33 Sudoeste 0 1009.8 -0.9 74
2020-03-30 16:00:00 17.4 27 Sudoeste 35 Sudoeste 0 1010 -1 74
2020-03-30 15:00:00 17.4 27 Sudoeste 35 Sudoeste 0 1010.2 -1.1 74
2020-03-30 14:00:00 17.9 26 Sudoeste 34 Sudoeste 0 1010.7 -0.6 74
2020-03-30 13:00:00 17.3 28 Sudoeste 35 Sudoeste 0 1011 -0.2 74
2020-03-30 12:00:00 17.2 24 Sudoeste 28 Sudoeste 0 1011.3 0.4 75
2020-03-30 11:00:00 16.3 13 Sur 22 Sudoeste 0 1011.3 0.6 79
2020-03-30 10:00:00 13.7 2 Este 9 Norte 0 1011.2 0.7 88
2020-03-30 09:00:00 11.9 7 Norte 8 Norte 0 1010.9 0.2 90
2020-03-30 08:00:00 11.1 5 Norte 9 Norte 0 1010.7 -0.1 90
2020-03-30 07:00:00 11.4 6 Norte 8 Norte 0 1010.5 -0.6 90
2020-03-30 06:00:00 12.6 5 Norte 15 Oeste 0 1010.7 -0.9 86
2020-03-30 05:00:00 13.2 10 Oeste 26 Oeste 0 1010.8 -1.1 86
2020-03-30 04:00:00 13.2 15 Oeste 24 Oeste 0 1011.1 -1.3 85
2020-03-30 03:00:00 13.1 13 Oeste 22 Oeste 0 1011.6 -1.1 83
2020-03-30 02:00:00 13.4 12 Oeste 26 Oeste 0 1011.9 -0.9 83
2020-03-30 01:00:00 13.6 14 Oeste 22 Oeste 0 1012.4 -0.4 83
2020-03-30 00:00:00 13.7 11 Oeste 29 Oeste 0 1012.7 0.2 83
2020-03-29 23:00:00 13.8 9 Sudoeste 24 Oeste 0 1012.8 0.9 84
2020-03-29 22:00:00 13.5 12 Sudoeste 19 Sudoeste 0 1012.8 1 84
2020-03-29 21:00:00 14.1 11 Sudoeste 26 Oeste 0 1012.5 0.5 81
2020-03-29 20:00:00 15.4 13 Sudoeste 31 Oeste 0 1011.9 -0.4 71
2020-03-29 19:00:00 17.7 16 Oeste 30 Oeste 0 1011.8 -0.5 46
2020-03-29 18:00:00 17.6 16 Oeste 28 Oeste 0 1012 -0.8 41
2020-03-29 17:00:00 16.6 18 Sudoeste 34 Sudoeste 0.4 1012.3 -1.1 58
2020-03-29 16:00:00 17.3 29 Sudoeste 34 Sudoeste 0 1012.3 -1.4 60
2020-03-29 15:00:00 19.5 22 Sudoeste 28 Sudoeste 0 1012.8 -1.2 60
2020-03-29 14:00:00 19.6 19 Sudoeste 24 Sudoeste 0 1013.4 -0.8 58
2020-03-29 13:00:00 19 7 Sur 15 Sudoeste 0 1013.7 -0.3 59
2020-03-29 12:00:00 17 10 Sudoeste 14 Sudoeste 0 1014 0.1 67
2020-03-29 11:00:00 16.5 8 Sudoeste 10 Sudoeste 0 1014.2 0.3 68
2020-03-29 10:00:00 14.8 3 Sudoeste 5 Norte 0 1014 0.4 71
2020-03-29 09:00:00 11.1 4 Norte 8 Norte 0 1013.9 0.1 84
2020-03-29 08:00:00 9.7 5 Nordeste 7 Norte 0 1013.9 -0.2 88
2020-03-29 07:00:00 10.5 3 Este 6 Norte 0 1013.6 -1 86
2020-03-29 06:00:00 10.8 5 Noroeste 8 Norte 0 1013.8 -1.4 85
2020-03-29 05:00:00 10.9 4 Norte 8 Norte 0 1014.1 -1.4 87
2020-03-29 03:00:00 11.5 6 Noroeste 9 Norte 0 1015.2 -0.3 86
2020-03-29 01:00:00 11.6 5 Norte 8 Sudoeste 0 1015.5 0.2 83
2020-03-29 00:00:00 11.5 4 Noroeste 10 Norte 0 1015.6 0.6 87
2020-03-28 23:00:00 11.4 7 Norte 12 Norte 0 1015.5 0.8 84
2020-03-28 22:00:00 11.7 7 Norte 12 Norte 0 1015.3 1.2 84
2020-03-28 21:00:00 12.5 6 Norte 16 Norte 0 1015 1.3 82
2020-03-28 20:00:00 13.3 10 Norte 15 Norte 0 1014.7 1.3 77
2020-03-28 19:00:00 14.1 8 Norte 14 Norte 0 1014.1 0.6 69
2020-03-28 18:00:00 15.1 10 Nordeste 24 Nordeste 0 1013.7 0 65
2020-03-28 17:00:00 15.7 15 Nordeste 30 Nordeste 0 1013.4 -0.4 64
2020-03-28 16:00:00 15.3 16 Nordeste 26 Este 0 1013.5 -0.7 63
2020-03-28 15:00:00 15.1 13 Este 23 Este 0 1013.7 -0.5 67
2020-03-28 14:00:00 15.9 17 Este 24 Este 0 1013.8 -0.3 61
2020-03-28 13:00:00 15.8 14 Este 21 Este 0 1014.2 0.2 62
2020-03-28 12:00:00 15.8 10 Este 18 Nordeste 0 1014.2 1.2 63
2020-03-28 11:00:00 15.4 11 Nordeste 20 Nordeste 0 1014.1 1.6 68
2020-03-28 10:00:00 13.2 6 Nordeste 26 Norte 0 1014 1.6 72
2020-03-28 09:00:00 11.6 17 Norte 33 Norte 0 1013 1 78
2020-03-28 08:00:00 11.4 15 Norte 26 Norte 0 1012.5 0.5 79
2020-03-28 07:00:00 9.8 13 Norte 18 Norte 0 1012.4 0 81
2020-03-28 06:00:00 9.5 12 Norte 18 Norte 0 1012 -0.7 84
2020-03-28 05:00:00 9.9 12 Norte 17 Norte 0 1012 -0.8 83
2020-03-28 04:00:00 10.2 11 Norte 19 Norte 0 1012.4 -0.5 82
2020-03-28 03:00:00 9.9 12 Norte 17 Norte 0 1012.7 -0.3 81
2020-03-28 02:00:00 9.7 12 Norte 20 Norte 0 1012.8 -0.3 80
2020-03-28 01:00:00 10 12 Norte 19 Norte 0 1012.9 0.2 78
2020-03-28 00:00:00 10.1 10 Norte 19 Nordeste 0 1013 0.6 79
2020-03-27 23:00:00 10.5 9 Norte 18 Norte 0 1013.1 1.2 78
2020-03-27 22:00:00 10.4 10 Norte 19 Norte 0 1012.7 1.4 83
2020-03-27 21:00:00 9.5 7 Norte 18 Norte 0 1012.4 1.5 78
2020-03-27 20:00:00 10.5 11 Norte 20 Nordeste 0 1011.9 1.3 68
2020-03-27 19:00:00 11.9 9 Norte 20 Nordeste 0 1011.3 0.7 55
2020-03-27 18:00:00 13.8 12 Norte 23 Nordeste 0 1010.9 0 51
2020-03-27 17:00:00 14.8 13 Nordeste 24 Nordeste 0 1010.6 -0.4 44
2020-03-27 16:00:00 15.6 14 Norte 29 Nordeste 0 1010.6 -0.4 41
2020-03-27 15:00:00 15.9 10 Nordeste 23 Nordeste 0 1010.9 -0.1 39
2020-03-27 14:00:00 15.9 8 Norte 22 Este 0 1011 -0.3 37
2020-03-27 13:00:00 14.7 13 Este 26 Nordeste 0 1011 0.2 46
2020-03-27 12:00:00 14.7 14 Nordeste 26 Este 0 1011 0.7 51
2020-03-27 11:00:00 13.6 16 Nordeste 27 Nordeste 0 1011.3 1.3 51
2020-03-27 10:00:00 13.2 16 Nordeste 26 Nordeste 0 1010.8 1.3 48
2020-03-27 09:00:00 11.9 12 Nordeste 23 Nordeste 0 1010.3 0.9 53
2020-03-27 08:00:00 8.9 10 Norte 17 Norte 0 1010 0.9 68
2020-03-27 07:00:00 7 12 Norte 17 Norte 0 1009.5 0.8 74
2020-03-27 06:00:00 6.9 10 Norte 17 Norte 0 1009.4 1 75
2020-03-27 05:00:00 7.2 11 Norte 23 Nordeste 0 1009.1 0.7 73
2020-03-27 04:00:00 10.6 13 Nordeste 38 Este 0 1008.7 0.4 59
2020-03-27 03:00:00 11 20 Nordeste 38 Nordeste 0 1008.4 0.3 63
2020-03-27 02:00:00 11 25 Este 42 Este 0 1008.4 0.6 59
2020-03-27 01:00:00 10.9 22 Nordeste 42 Este 0 1008.3 0.5 67
2020-03-27 00:00:00 10.7 22 Este 41 Este 0 1008.1 1 79
2020-03-26 23:00:00 9.8 27 Este 43 Este 0.8 1007.8 1.6 82
2020-03-26 22:00:00 9 26 Nordeste 49 Este 3 1007.8 2.4 87
2020-03-26 21:00:00 9.2 27 Nordeste 50 Este 1.2 1007.1 2.1 85
2020-03-26 20:00:00 8.4 13 Nordeste 31 Nordeste 6 1006.2 1.3 92
2020-03-26 19:00:00 8.9 19 Nordeste 32 Nordeste 0.2 1005.4 0.8 89
2020-03-26 18:00:00 8.3 9 Norte 25 Nordeste 0.8 1005 0.3 91
2020-03-26 17:00:00 8 14 Norte 25 Norte 1 1004.9 0.1 89
2020-03-26 16:00:00 8.8 14 Nordeste 32 Este 1.2 1004.6 0.1 83
2020-03-26 15:00:00 9 21 Nordeste 35 Nordeste 0 1004.7 -0.5 83
2020-03-26 14:00:00 9.9 14 Nordeste 33 Este 0.4 1004.8 -0.8 82
2020-03-26 13:00:00 9.4 10 Nordeste 22 Nordeste 2.6 1004.5 -1 91
2020-03-26 12:00:00 8.2 8 Oeste 33 Noroeste 2.2 1005.2 -0.7 89
2020-03-26 11:00:00 9.8 9 Sudoeste 22 Sudoeste 3.8 1005.6 -0.5 86
2020-03-26 10:00:00 10.2 13 Sudoeste 28 Oeste 2.6 1005.5 -1.3 84
2020-03-26 09:00:00 11.8 15 Sudoeste 27 Sudoeste 0 1005.9 -1.4 72
2020-03-26 08:00:00 10.4 5 Sudoeste 14 Noroeste 0 1006.1 -1.9 76
2020-03-26 07:00:00 7.8 7 Noroeste 17 Oeste 0 1006.8 -1.7 81
2020-03-26 06:00:00 8.5 11 Oeste 22 Oeste 0 1007.3 -2.2 78
2020-03-26 05:00:00 9 10 Oeste 22 Noroeste 0 1008 -2.5 75
2020-03-26 04:00:00 7.8 5 Norte 10 Noroeste 0 1008.5 -2.6 75
2020-03-26 03:00:00 6.5 8 Norte 11 Noroeste 0 1009.5 -2.5 79
2020-03-26 02:00:00 7.8 5 Norte 9 Norte 0 1010.5 -2.1 72
2020-03-26 01:00:00 7.3 8 Norte 9 Norte 0 1011.1 -1.7 73
2020-03-26 00:00:00 7.1 8 Norte 11 Norte 0 1012 -0.7 71
2020-03-25 23:00:00 7.6 9 Norte 11 Norte 0 1012.6 -0.2 66
2020-03-25 22:00:00 8.2 7 Norte 10 Norte 0 1012.8 0.3 64
2020-03-25 21:00:00 9.2 8 Norte 17 Nordeste 0 1012.7 0.2 58
2020-03-25 20:00:00 10.9 10 Nordeste 24 Este 0 1012.8 0.3 51
2020-03-25 19:00:00 11.2 12 Nordeste 26 Este 0 1012.5 -0.1 49
2020-03-25 18:00:00 12.6 13 Nordeste 31 Nordeste 0 1012.5 0 42
2020-03-25 17:00:00 13.3 19 Nordeste 32 Nordeste 0 1012.5 -0.2 43
2020-03-25 16:00:00 12.9 18 Este 36 Este 0 1012.6 -0.6 48
2020-03-25 15:00:00 13.3 22 Nordeste 36 Nordeste 0 1012.5 -1 49
2020-03-25 14:00:00 13.6 11 Este 35 Este 0 1012.7 -0.9 52
2020-03-25 13:00:00 13 19 Este 35 Este 0 1013.2 -0.6 59
2020-03-25 12:00:00 13.8 15 Nordeste 27 Nordeste 0 1013.5 0.2 49
2020-03-25 11:00:00 13.4 16 Nordeste 32 Nordeste 0 1013.6 0.4 49
2020-03-25 10:00:00 12.5 16 Nordeste 34 Nordeste 0 1013.8 1.2 54
2020-03-25 09:00:00 12.3 23 Nordeste 41 Nordeste 0 1013.3 0.9 53
2020-03-25 08:00:00 10.7 22 Este 49 Este 0 1013.2 0.7 66
2020-03-25 07:00:00 11.2 18 Nordeste 39 Este 0 1012.6 0.1 54
2020-03-25 06:00:00 11.2 26 Este 45 Este 0 1012.4 -0.3 51
2020-03-25 05:00:00 11.2 25 Este 47 Este 0 1012.5 -0.7 48
2020-03-25 04:00:00 11.5 25 Este 47 Este 0 1012.5 -1.2 55
2020-03-25 03:00:00 11.7 29 Este 51 Este 0 1012.7 -1 52
2020-03-25 02:00:00 11.9 33 Este 52 Este 0 1013.2 -0.9 55
2020-03-25 01:00:00 10.6 33 Este 50 Este 0 1013.7 -0.4 71
2020-03-25 00:00:00 12.1 34 Este 50 Este 0 1013.7 -0.4 59
2020-03-24 23:00:00 12.4 28 Este 50 Este 0 1014.1 0.2 61
2020-03-24 22:00:00 12.6 30 Este 48 Este 0 1014.1 0.3 62
2020-03-24 21:00:00 12.7 29 Este 48 Este 0 1014.1 0.8 61
2020-03-24 20:00:00 12.7 33 Este 53 Este 0 1013.9 0.7 57
2020-03-24 19:00:00 12.7 33 Este 57 Este 0 1013.8 0.5 60
2020-03-24 18:00:00 13.3 34 Este 55 Este 0.2 1013.3 -0.4 58
2020-03-24 17:00:00 13.5 34 Este 50 Este 0 1013.2 -1.3 57
2020-03-24 16:00:00 13.7 32 Este 50 Este 0 1013.3 -1.6 64
2020-03-24 15:00:00 13.7 30 Este 49 Este 0 1013.7 -1.2 66
2020-03-24 14:00:00 13.8 28 Este 45 Este 0 1014.5 -0.1 72
2020-03-24 13:00:00 14.3 27 Este 45 Este 0 1014.9 0.3 69
2020-03-24 12:00:00 14.2 28 Este 49 Este 0.2 1014.9 0.5 72
2020-03-24 11:00:00 13.8 32 Este 48 Este 0 1014.6 0.1 81
2020-03-24 10:00:00 14.1 23 Este 38 Este 1.2 1014.6 0.5 80
2020-03-24 09:00:00 14 26 Este 39 Este 0 1014.4 0.4 83
2020-03-24 08:00:00 14.5 18 Este 39 Este 0 1014.5 0.4 76
2020-03-24 07:00:00 14.4 21 Este 40 Este 0 1014.1 -0.3 78
2020-03-24 06:00:00 14.5 26 Este 46 Este 0.4 1014 -0.2 76
2020-03-24 05:00:00 14.7 29 Este 41 Este 0 1014.1 -0.6 82
2020-03-24 04:00:00 14.8 23 Este 41 Este 0 1014.4 -0.5 80
2020-03-24 03:00:00 14.7 24 Este 41 Este 0 1014.2 -1.1 81
2020-03-24 02:00:00 14.9 20 Este 40 Este 0 1014.7 -0.9 80
2020-03-24 01:00:00 15 25 Este 41 Este 0 1014.9 -0.9 80
2020-03-24 00:00:00 15 19 Este 33 Este 0 1015.3 -0.3 81
2020-03-23 23:00:00 14.9 20 Este 34 Este 0 1015.6 -0.1 78
2020-03-23 22:00:00 14.9 20 Este 40 Este 0 1015.8 0.4 79
2020-03-23 21:00:00 15 26 Este 40 Este 0 1015.6 0.6 76
2020-03-23 20:00:00 15 20 Este 33 Este 0 1015.7 1.1 78
2020-03-23 19:00:00 15.2 18 Este 32 Este 0 1015.4 0.7 79
2020-03-23 18:00:00 15.9 16 Este 28 Este 0 1015 0.3 74
2020-03-23 17:00:00 16.8 13 Este 28 Este 0 1014.6 -0.6 75
2020-03-23 16:00:00 16.6 18 Este 29 Este 0 1014.7 -1.2 73
2020-03-23 15:00:00 17.6 13 Este 24 Este 0 1014.7 -1.2 71
2020-03-23 14:00:00 17.6 12 Este 22 Este 0 1015.2 -0.6 69
2020-03-23 13:00:00 17.6 12 Este 21 Este 0 1015.9 0.4 71
2020-03-23 12:00:00 17.3 13 Este 21 Este 0 1015.9 0.7 73
2020-03-23 11:00:00 17.6 13 Sudeste 21 Sudeste 0 1015.8 1.2 69
2020-03-23 10:00:00 17.2 13 Sudeste 21 Sudeste 0 1015.5 1.3 72
2020-03-23 09:00:00 16.3 11 Sudeste 23 Sudeste 0 1015.2 1.5 76
2020-03-23 08:00:00 15.1 12 Sudeste 23 Sudeste 0 1014.6 1.3 81
2020-03-23 07:00:00 14.6 12 Sudeste 27 Sudeste 0 1014.2 1 83
2020-03-23 06:00:00 14.9 11 Sudeste 22 Sudeste 0 1013.7 0.6 85
2020-03-23 05:00:00 14.6 9 Sur 21 Sur 0 1013.3 0.1 83
2020-03-23 04:00:00 14.7 17 Sur 20 Sur 0 1013.2 -0.3 84
2020-03-23 03:00:00 14.7 9 Sudeste 19 Sudeste 0 1013.1 -0.3 85
2020-03-23 02:00:00 14.8 9 Sudeste 21 Sur 0 1013.2 0 84
2020-03-23 01:00:00 15.1 13 Sur 20 Sur 0 1013.5 0.6 84
2020-03-23 00:00:00 14.9 18 Sur 21 Sur 0 1013.4 0.9 84
2020-03-22 23:00:00 14.9 14 Sur 16 Sur 0 1013.2 1.2 84
2020-03-22 22:00:00 14.6 13 Sur 17 Sudoeste 0 1012.9 1.5 85
2020-03-22 21:00:00 14.9 13 Sur 17 Sudoeste 0 1012.5 1.7 85
2020-03-22 20:00:00 15 13 Sur 17 Sur 0 1012 1.8 85
2020-03-22 19:00:00 15.2 9 Sudeste 30 Sudeste 0 1011.4 1.4 84
2020-03-22 18:00:00 15.9 11 Sudeste 22 Sudeste 0 1010.8 0.6 83
2020-03-22 17:00:00 16.4 16 Sur 19 Sur 0 1010.2 -0.1 77
2020-03-22 16:00:00 17.3 16 Sudoeste 23 Sudoeste 0 1010 -0.3 76
2020-03-22 15:00:00 17.9 17 Sudoeste 25 Sudoeste 0 1010.2 0 72
2020-03-22 14:00:00 17.7 22 Sudoeste 27 Sudoeste 0 1010.3 0.6 79
2020-03-22 13:00:00 18.2 19 Sudoeste 29 Sudoeste 0 1010.3 1 74
2020-03-22 12:00:00 17.4 22 Sudoeste 31 Sudoeste 0 1010.2 1.2 78
2020-03-22 11:00:00 17 24 Sudoeste 30 Sudoeste 0 1009.7 1.1 82
2020-03-22 10:00:00 15.8 17 Sur 23 Sur 0 1009.3 1 87
2020-03-22 09:00:00 16 5 Este 13 Nordeste 0 1009 0.8 87
2020-03-22 08:00:00 14.3 7 Norte 10 Nordeste 0 1008.6 0.5 91
2020-03-22 07:00:00 13.9 7 Nordeste 12 Norte 0 1008.3 0.3 92
2020-03-22 06:00:00 13 9 Norte 15 Norte 0 1008.2 -0.2 91
2020-03-22 05:00:00 13.2 11 Norte 18 Norte 0 1008.1 -0.9 90
2020-03-22 04:00:00 13.1 11 Norte 23 Norte 0 1008 -1.5 90
2020-03-22 03:00:00 13.4 13 Norte 22 Norte 0 1008.4 -1.2 89
2020-03-22 02:00:00 13 12 Norte 18 Norte 0 1009 -1 90
2020-03-22 01:00:00 12.8 8 Norte 15 Norte 0 1009.5 -0.6 91
2020-03-22 00:00:00 12.9 9 Norte 14 Norte 0 1009.6 -0.2 90
2020-03-21 23:00:00 14.1 8 Nordeste 17 Nordeste 0 1010 0.3 88
2020-03-21 22:00:00 14.1 8 Norte 18 Nordeste 0 1010.1 0.9 87
2020-03-21 21:00:00 14.6 12 Nordeste 17 Este 0 1009.8 1 86
2020-03-21 20:00:00 14.8 8 Nordeste 21 Este 0 1009.7 0.9 85
2020-03-21 19:00:00 15.1 14 Este 26 Este 0 1009.2 0.2 85
2020-03-21 18:00:00 15.5 15 Este 24 Este 0 1008.8 -0.8 81
2020-03-21 17:00:00 16.1 12 Este 22 Este 0 1008.8 -1 79
2020-03-21 16:00:00 16.4 12 Este 22 Este 0 1009 -1.2 76
2020-03-21 15:00:00 17 11 Este 22 Este 0 1009.6 -0.8 74
2020-03-21 14:00:00 18.1 13 Este 25 Este 0 1009.8 -0.8 70
2020-03-21 13:00:00 16.7 19 Este 29 Este 0 1010.2 -0.3 76
2020-03-21 12:00:00 16.8 15 Este 28 Este 0 1010.4 -0.1 77
2020-03-21 11:00:00 17.2 14 Nordeste 28 Este 0 1010.6 0.1 77
2020-03-21 10:00:00 16.3 14 Nordeste 28 Nordeste 0 1010.5 -0.1 79
2020-03-21 09:00:00 15.4 17 Nordeste 30 Nordeste 0 1010.5 -0.3 84
2020-03-21 08:00:00 14.4 11 Nordeste -- -- 0 1010.5 0 86
2020-03-21 07:00:00 14.2 12 Nordeste 21 Nordeste 0 1010.6 -0.2 85
2020-03-21 06:00:00 14.1 9 Nordeste 29 Nordeste 0 1010.8 -0.6 86
2020-03-21 05:00:00 14.2 19 Nordeste 31 Nordeste 0 1010.5 -1.8 85
2020-03-21 04:00:00 13.8 15 Nordeste 33 Nordeste 0 1010.8 -1.9 83
2020-03-21 03:00:00 14.4 21 Nordeste 29 Nordeste 0 1011.4 -1.8 83
2020-03-21 02:00:00 14.6 17 Este 34 Este 0 1012.3 -1.5 82
2020-03-21 01:00:00 14.5 25 Este 35 Este 0 1012.7 -1.5 81
2020-03-21 00:00:00 14.5 23 Este 37 Este 0 1013.2 -1.2 82
2020-03-20 23:00:00 14.5 20 Este 38 Este 0 1013.8 -0.8 78
2020-03-20 22:00:00 14.6 22 Este 37 Este 0 1014.2 -0.1 78
2020-03-20 21:00:00 14.6 23 Este 35 Este 0 1014.4 0.1 78
2020-03-20 20:00:00 14.7 22 Este 37 Este 0 1014.6 0.1 78
2020-03-20 19:00:00 14.7 20 Este 38 Este 0 1014.3 -0.5 78
2020-03-20 18:00:00 15.3 22 Este 34 Este 0 1014.3 -0.9 79
2020-03-20 17:00:00 15.6 18 Este 34 Este 0 1014.5 -1 77
2020-03-20 16:00:00 15.8 21 Este 34 Este 0 1014.8 -1.1 76
2020-03-20 15:00:00 16.8 18 Este 31 Este 0 1015.2 -0.9 70
2020-03-20 14:00:00 16.9 19 Este 33 Este 0 1015.5 -0.9 68
2020-03-20 13:00:00 16.4 20 Este 37 Este 0 1015.9 -0.7 69
2020-03-20 12:00:00 16.6 20 Este 36 Este 0 1016.1 -0.4 68
2020-03-20 11:00:00 16 21 Este 37 Este 0 1016.4 0.2 70
2020-03-20 10:00:00 16 19 Este 33 Este 0 1016.6 0.5 67
2020-03-20 09:00:00 15.3 19 Este 36 Este 0 1016.5 0.5 70
2020-03-20 08:00:00 14.9 23 Este 35 Este 0 1016.2 0.3 74
2020-03-20 07:00:00 14.5 22 Este 35 Este 0 1016.1 0 74
2020-03-20 06:00:00 14.4 18 Este 32 Este 0 1016 -0.6 76
2020-03-20 05:00:00 14.2 18 Este 29 Este 0 1015.9 -1.3 76
2020-03-20 04:00:00 14.1 17 Este 28 Este 0 1016.1 -1.5 75
2020-03-20 03:00:00 14.2 14 Este 27 Este 0 1016.6 -1.6 74
2020-03-20 02:00:00 13.9 14 Este 26 Este 0 1017.2 -1.4 76
2020-03-20 01:00:00 14 13 Este 26 Este 0 1017.6 -1 77
2020-03-20 00:00:00 14.1 15 Este 28 Este 0 1018.2 -0.3 76
2020-03-19 23:00:00 14.2 15 Este 30 Este 0 1018.6 0.1 79
2020-03-19 22:00:00 14.2 17 Este 29 Este 0 1018.6 0.4 81
2020-03-19 21:00:00 14.3 18 Este 26 Este 0 1018.5 0.1 81
2020-03-19 20:00:00 14.2 13 Este 23 Este 0 1018.5 -0.3 80
2020-03-19 19:00:00 14.3 13 Este 25 Este 0 1018.2 -1.2 79
2020-03-19 18:00:00 15 13 Este 23 Este 0 1018.4 -1.3 74
2020-03-19 17:00:00 15.8 12 Este 22 Este 0 1018.8 -1.4 72
2020-03-19 16:00:00 16.2 13 Este 22 Este 0 1019.4 -1.5 71
2020-03-19 15:00:00 16.6 13 Este 21 Este 0 1019.7 -1.5 69
2020-03-19 14:00:00 17.1 11 Este 23 Este 0 1020.2 -1.4 68
2020-03-19 13:00:00 17 12 Este 19 Este 0 1020.9 -0.6 69
2020-03-19 12:00:00 16.8 11 Este 22 Este 0 1021.2 0 70
2020-03-19 11:00:00 16.4 12 Este 23 Este 0 1021.6 0.8 71
2020-03-19 10:00:00 15.5 13 Este 24 Este 0 1021.5 0.7 75
2020-03-19 09:00:00 15 14 Este 24 Este 0 1021.2 0.5 79
2020-03-19 08:00:00 14.2 13 Este 23 Este 0 1020.8 0 82
2020-03-19 07:00:00 14 13 Este 26 Este 0 1020.8 -0.1 83
2020-03-19 06:00:00 13.8 12 Este 22 Este 0 1020.7 -0.8 86
2020-03-19 05:00:00 12.3 8 Norte 12 Norte 0 1020.8 -1.2 92
2020-03-19 04:00:00 12.4 8 Nordeste 13 Nordeste 0 1020.9 -1.2 91
2020-03-19 03:00:00 12.4 8 Norte 11 Norte 0 1021.5 -0.8 90
2020-03-19 02:00:00 12.9 6 Norte 15 Nordeste 0 1022 -0.8 88
2020-03-19 01:00:00 14.1 8 Nordeste 18 Este 0 1022.1 -0.8 86
2020-03-19 00:00:00 14.4 12 Este 18 Este 0 1022.3 -0.5 85
2020-03-18 23:00:00 14.5 11 Este 17 Este 0 1022.8 0.3 84
2020-03-18 22:00:00 14.7 12 Este 19 Este 0 1022.9 0.7 83
2020-03-18 21:00:00 14.8 12 Este 23 Este 0 1022.8 0.8 83
2020-03-18 20:00:00 14.9 12 Este 24 Este 0 1022.5 0.6 84
2020-03-18 19:00:00 14.9 14 Este 27 Este 0 1022.2 0.1 83
2020-03-18 18:00:00 15.3 16 Este 30 Este 0 1022 -0.5 82
2020-03-18 17:00:00 15.7 17 Este 27 Este 0 1021.9 -1.1 79
2020-03-18 16:00:00 16.3 17 Este 26 Este 0 1022.1 -1.5 75
2020-03-18 15:00:00 16.7 18 Este 28 Este 0 1022.5 -1.4 74
2020-03-18 14:00:00 17 19 Este 28 Este 0 1023 -1 76
2020-03-18 13:00:00 16.9 19 Este 28 Este 0 1023.6 -0.2 76
2020-03-18 12:00:00 16.7 19 Este 28 Este 0 1023.9 0.3 77
2020-03-18 11:00:00 15.6 16 Este 28 Nordeste 0 1024 0.7 86
2020-03-18 10:00:00 15.8 13 Nordeste 28 Este 0 1023.8 0.6 85
2020-03-18 09:00:00 15.2 18 Nordeste 29 Este 0 1023.6 0.4 84
2020-03-18 08:00:00 14.9 17 Este 32 Este 0 1023.3 0.2 85
2020-03-18 07:00:00 14.5 18 Nordeste 32 Nordeste 0 1023.2 0.1 87
2020-03-18 06:00:00 14.5 17 Nordeste 35 Nordeste 0 1023.2 -0.3 88
2020-03-18 05:00:00 14.5 19 Nordeste 34 Nordeste 0 1023.1 -0.9 87
2020-03-18 04:00:00 14.5 19 Nordeste 35 Nordeste 0 1023.1 -1 85
2020-03-18 03:00:00 14.7 19 Nordeste 32 Nordeste 0 1023.5 -0.6 85
2020-03-18 02:00:00 14.8 19 Nordeste 34 Este 0 1024 -0.3 82
2020-03-18 01:00:00 14.8 18 Nordeste 36 Nordeste 0 1024.1 -0.1 83
2020-03-18 00:00:00 14.8 18 Nordeste 33 Nordeste 0 1024.1 0.3 83
2020-03-17 23:00:00 15 19 Nordeste 41 Este 0 1024.3 1 84
2020-03-17 22:00:00 15.2 23 Este 42 Este 0 1024.2 1.3 83
2020-03-17 21:00:00 15.3 30 Este 45 Este 0 1023.8 1.1 82
2020-03-17 20:00:00 15.2 28 Este 43 Este 0 1023.3 0.9 83
2020-03-17 19:00:00 15.2 26 Este 41 Este 0 1022.9 0.5 82
2020-03-17 18:00:00 15.5 23 Este 44 Este 0 1022.7 0.3 82
2020-03-17 17:00:00 15.7 22 Este 44 Este 0 1022.4 0.2 82
2020-03-17 16:00:00 16.1 21 Este 42 Este 0 1022.4 -0.1 79
2020-03-17 15:00:00 16.7 20 Este 36 Este 0 1022.4 -0.1 76
2020-03-17 14:00:00 16.6 19 Este 36 Este 0 1022.2 0 78
2020-03-17 13:00:00 16.4 20 Este 35 Este 0 1022.5 0.6 82
2020-03-17 12:00:00 16.2 18 Este 33 Este 0 1022.5 0.9 85
2020-03-17 11:00:00 16.1 20 Este 37 Este 0 1022.2 1.6 85
2020-03-17 10:00:00 15.8 19 Este 35 Este 0 1021.9 2 87
2020-03-17 09:00:00 15.6 20 Este 34 Este 0 1021.6 2.8 89
2020-03-17 08:00:00 15.5 18 Este 31 Este 0 1020.6 2.6 90
2020-03-17 07:00:00 15.5 18 Este 32 Este 0 1019.9 1.7 90
2020-03-17 06:00:00 15.4 18 Nordeste 34 Nordeste 0 1018.8 0.4 92
2020-03-17 05:00:00 15.4 18 Nordeste 29 Nordeste 0 1018 -0.5 93
2020-03-17 04:00:00 15.4 13 Nordeste 23 Este 0 1018.2 0.1 92
2020-03-17 03:00:00 15.5 13 Nordeste 22 Nordeste 0 1018.4 0.5 92
2020-03-17 02:00:00 15.6 12 Este 18 Este 0 1018.5 1 91
2020-03-17 01:00:00 15.6 12 Este 18 Este 0 1018.1 1.3 90
2020-03-17 00:00:00 15.6 11 Este 20 Este 0 1017.9 2 90
2020-03-16 23:00:00 15.7 12 Este 23 Este 0 1017.5 2 89
2020-03-16 22:00:00 15.7 14 Este 24 Este 0 1016.8 2.5 89
2020-03-16 21:00:00 15.7 16 Este 24 Este 0 1015.9 2.3 88
2020-03-16 20:00:00 15.8 13 Sudeste 24 Sudeste 0 1015.5 2.3 88
2020-03-16 19:00:00 15.8 16 Sudeste 25 Sudeste 0 1014.3 1.3 87
2020-03-16 18:00:00 16.2 13 Sudeste 21 Sudeste 0 1013.6 0.9 87
2020-03-16 17:00:00 16.3 12 Sudeste 19 Sudeste 0 1013.2 0.8 86
2020-03-16 16:00:00 16.5 7 Sudeste 16 Sudeste 0 1013 0.9 85
2020-03-16 15:00:00 16.5 9 Este 21 Sudeste 0 1012.7 0.5 84
2020-03-16 14:00:00 16.7 11 Sudeste 31 Sudeste 0 1012.4 0.2 84
2020-03-16 13:00:00 16.5 21 Sudeste 43 Sudeste 0 1012.1 0.1 85
2020-03-16 12:00:00 16 27 Sudeste 47 Sudeste 0 1012.2 0.9 87
2020-03-16 11:00:00 15.8 23 Sudeste 42 Sudeste 0.2 1012.2 1.4 87
2020-03-16 10:00:00 15.6 24 Sudeste 45 Sudeste 0 1012 1 88
2020-03-16 09:00:00 15.5 16 Sudeste 35 Sudeste 0.2 1011.3 0.7 90
2020-03-16 08:00:00 15.5 18 Sudeste 30 Sudeste 0.2 1010.8 0 90
2020-03-16 07:00:00 15.4 12 Sudeste 24 Sudeste 0 1011 -0.3 86
2020-03-16 06:00:00 15.2 14 Sudeste 25 Sudeste 0 1010.6 -0.9 85
2020-03-16 05:00:00 15 14 Sudeste 26 Este 0 1010.8 -1.4 84
2020-03-16 04:00:00 14.8 15 Sudeste 29 Este 0 1011.3 -1.5 84
2020-03-16 03:00:00 14.7 20 Este 34 Este 0 1011.5 -2.8 82
2020-03-16 02:00:00 14.6 17 Este 26 Este 0 1012.2 -2.7 83
2020-03-16 01:00:00 14.6 17 Este 27 Sudeste 0 1012.8 -1.8 82
2020-03-16 00:00:00 14.5 13 Sudeste 27 Sudeste 0 1014.3 0 82
2020-03-15 23:00:00 14.4 15 Sudeste 26 Sudeste 0 1014.9 0.7 81
2020-03-15 22:00:00 14.3 17 Sudeste 27 Sudeste 0 1014.6 0.5 80
2020-03-15 21:00:00 14.3 16 Sudeste 26 Sudeste 0 1014.3 0.2 81
2020-03-15 20:00:00 14.4 12 Este 23 Este 0 1014.2 -0.4 80
2020-03-15 19:00:00 14.6 13 Este 23 Este 0 1014.1 -1.3 80
2020-03-15 18:00:00 15.3 12 Este 21 Este 0 1014.1 -1.7 75
2020-03-15 17:00:00 16.3 9 Este 17 Este 0 1014.6 -1.9 74
2020-03-15 16:00:00 16.9 10 Este 15 Este 0 1015.4 -1.8 68
2020-03-15 15:00:00 17.8 8 Sudeste 15 Sudeste 0 1015.8 -2.1 65
2020-03-15 14:00:00 17.5 8 Sudeste 19 Sur 0 1016.5 -1.6 65
2020-03-15 13:00:00 17.1 8 Sudeste 20 Sudeste 0 1017.2 -1 66
2020-03-15 12:00:00 16.9 6 Sudeste 17 Sur 0 1017.9 -0.1 69
2020-03-15 11:00:00 16 9 Sudeste 18 Sudeste 0 1018.1 0.4 71
2020-03-15 10:00:00 15.9 6 Este 10 Este 0 1018.2 0.7 78
2020-03-15 09:00:00 14.9 3 Sudeste 6 Norte 0 1018 0.7 83
2020-03-15 08:00:00 11.1 6 Norte 9 Norte 0 1017.7 0.3 91
2020-03-15 07:00:00 9.4 6 Norte 9 Norte 0 1017.5 0 92
2020-03-15 06:00:00 9.6 8 Norte 10 Norte 0 1017.3 -0.8 92
2020-03-15 05:00:00 9.6 9 Norte 10 Norte 0 1017.4 -1.2 91
2020-03-15 04:00:00 10.2 7 Norte 10 Norte 0 1017.5 -1.3 91
2020-03-15 03:00:00 10.4 8 Norte 9 Norte 0 1018.1 -0.9 90
2020-03-15 02:00:00 11.2 5 Norte 8 Norte 0 1018.6 -0.5 88
2020-03-15 01:00:00 11.9 4 Noroeste 6 Oeste 0 1018.8 -0.1 86
2020-03-15 00:00:00 12.4 4 Oeste 8 Oeste 0 1019 0.3 84
2020-03-14 23:00:00 12.1 6 Oeste 8 Oeste 0 1019.1 0.8 83
2020-03-14 22:00:00 11.7 3 Noroeste 7 Sudoeste 0 1018.9 0.8 82
2020-03-14 21:00:00 12.6 2 Sudoeste 9 Sur 0 1018.7 0.6 79
2020-03-14 20:00:00 14.2 3 Sur 9 Sudeste 0 1018.3 0.4 72
2020-03-14 19:00:00 14.8 4 Sudeste 12 Sudeste 0 1018.1 0.2 69
2020-03-14 18:00:00 15.9 5 Este 12 Este 0 1018.1 0.2 62
2020-03-14 17:00:00 16.9 7 Este 12 Este 0 1017.9 -0.4 60
2020-03-14 16:00:00 17.5 6 Sudeste 15 Sudeste 0 1017.9 -1 58
2020-03-14 15:00:00 17.1 8 Sudeste 15 Sudeste 0 1017.9 -1.2 59
2020-03-14 14:00:00 17.2 6 Sudeste 15 Este 0 1018.3 -1 57
2020-03-14 13:00:00 16.9 8 Este 18 Este 0 1018.9 -0.4 59
2020-03-14 12:00:00 16.8 10 Este 22 Nordeste 0 1019.1 0.4 58
2020-03-14 11:00:00 16.3 12 Nordeste 26 Nordeste 0 1019.3 1.7 61
2020-03-14 10:00:00 15.4 17 Nordeste 27 Nordeste 0 1019.3 2.2 67
2020-03-14 09:00:00 14.2 8 Nordeste 13 Nordeste 0 1018.7 1.9 84
2020-03-14 08:00:00 11.5 6 Norte 8 Norte 0 1017.6 1 91
2020-03-14 07:00:00 11.3 6 Norte 10 Nordeste 0 1017.1 1.2 91
2020-03-14 06:00:00 11.5 8 Norte 17 Norte 0.4 1016.8 0.1 90
2020-03-14 05:00:00 11.6 11 Norte 16 Norte 0.4 1016.6 -0.8 88
2020-03-14 04:00:00 12.4 5 Norte 16 Nordeste 1.4 1015.9 -0.7 84
2020-03-14 03:00:00 13 10 Norte 19 Norte 0 1016.7 0 69
2020-03-14 02:00:00 13.3 13 Norte 18 Norte 0 1017.4 0.6 58
2020-03-14 01:00:00 13.4 9 Nordeste 17 Norte 0 1016.6 0 58
2020-03-14 00:00:00 13.1 10 Norte 18 Nordeste 0 1016.7 0.6 55
2020-03-13 23:00:00 13.2 10 Norte 19 Nordeste 0 1016.8 0.9 58
2020-03-13 22:00:00 13.4 10 Norte 21 Norte 0 1016.6 1.2 68
2020-03-13 21:00:00 13.7 10 Nordeste 19 Nordeste 0 1016.1 1 73
2020-03-13 20:00:00 13.8 10 Nordeste 22 Nordeste 0 1015.9 0.6 73
2020-03-13 19:00:00 14.8 12 Nordeste 27 Nordeste 0 1015.4 -0.3 76
2020-03-13 18:00:00 16.2 14 Nordeste 23 Nordeste 0 1015.1 -0.8 79
2020-03-13 17:00:00 17.3 12 Nordeste 22 Este 0 1015.3 -0.9 72
2020-03-13 16:00:00 18 13 Nordeste 26 Nordeste 0 1015.7 -1.2 71
2020-03-13 15:00:00 18.4 17 Nordeste 28 Nordeste 0 1015.9 -1.4 69
2020-03-13 14:00:00 18.4 17 Nordeste 31 Nordeste 0 1016.2 -1.2 68
2020-03-13 13:00:00 17.6 21 Nordeste 39 Nordeste 0 1016.9 -0.3 73
2020-03-13 12:00:00 17.6 24 Nordeste 39 Nordeste 0 1017.3 0.4 71
2020-03-13 11:00:00 17 20 Nordeste 29 Nordeste 0 1017.4 0.9 75
2020-03-13 10:00:00 16.3 18 Nordeste 32 Nordeste 0 1017.2 1.1 78
2020-03-13 09:00:00 15.5 21 Nordeste 33 Nordeste 0 1016.9 1.3 81
2020-03-13 08:00:00 14.4 14 Nordeste 36 Nordeste 0 1016.5 1.2 84
2020-03-13 07:00:00 14.6 21 Nordeste 36 Nordeste 0 1016.1 1.1 83
2020-03-13 06:00:00 12.7 15 Norte 22 Norte 0 1015.6 0.3 74
2020-03-13 05:00:00 12.8 11 Nordeste 18 Nordeste 0 1015.3 -0.4 87
2020-03-13 04:00:00 12.5 12 Nordeste 18 Nordeste 0 1015 -1.3 92
2020-03-13 03:00:00 12.3 12 Norte 15 Norte 0 1015.3 -0.9 92
2020-03-13 02:00:00 12.8 12 Norte 15 Norte 0 1015.7 -0.8 90
2020-03-13 01:00:00 12.8 11 Norte 14 Norte 0 1016.3 -0.3 89
2020-03-13 00:00:00 12.3 10 Nordeste 14 Norte 0 1016.2 -0.4 87
2020-03-12 23:00:00 12.7 11 Norte 13 Norte 0 1016.5 -0.1 83
2020-03-12 22:00:00 12.5 10 Norte 12 Norte 0 1016.6 0 80
2020-03-12 21:00:00 13.1 9 Norte 10 Norte 0 1016.6 0.3 79
2020-03-12 20:00:00 14.5 4 Nordeste 4 Nordeste 0 1016.6 0.1 86
2020-03-12 19:00:00 16.4 2 Sur 5 Sudoeste 0 1016.6 -0.5 77
2020-03-12 18:00:00 17.9 4 Sur 10 Sur 0 1016.3 -1.4 75
2020-03-12 17:00:00 18.5 8 Sur 11 Sur 0 1016.5 -2 72
2020-03-12 16:00:00 19.5 9 Sur 15 Sudoeste 0 1017.1 -2.2 68
2020-03-12 15:00:00 19.5 11 Sur 13 Sudoeste 0 1017.7 -2.2 66
2020-03-12 14:00:00 20.3 12 Sudoeste 14 Sur 0 1018.5 -1.8 67
2020-03-12 13:00:00 19.2 13 Sur 15 Sur 0 1019.3 -0.9 71
2020-03-12 12:00:00 19.1 11 Sudoeste 14 Sudoeste 0 1019.9 -0.2 72
2020-03-12 11:00:00 18.2 9 Sudoeste 11 Sudoeste 0 1020.3 0.4 80
2020-03-12 10:00:00 16.8 9 Sur 12 Sur 0 1020.2 0.6 82
2020-03-12 09:00:00 15.4 6 Sudoeste 13 Oeste 0 1020.1 0.9 87
2020-03-12 08:00:00 13.9 9 Oeste 16 Oeste 0 1019.9 0.7 93
2020-03-12 07:00:00 13.1 9 Oeste 18 Sudoeste 0 1019.6 0.3 94
2020-03-12 06:00:00 12.3 9 Sudoeste 15 Sudoeste 0 1019.2 -0.3 92
2020-03-12 05:00:00 11.3 8 Oeste 12 Oeste 0 1019.2 -1.1 89
2020-03-12 04:00:00 12.1 7 Este 9 Este 0 1019.3 -1.3 91
2020-03-12 03:00:00 10.9 4 Noroeste 7 Norte 0 1019.5 -1.4 90
2020-03-12 02:00:00 11.3 3 Noroeste 7 Sudoeste 0 1020.3 -0.9 90
2020-03-12 01:00:00 12.2 3 Este 9 Norte 0 1020.6 -0.5 89
2020-03-12 00:00:00 12.4 5 Norte 10 Oeste 0 1020.9 0 91
2020-03-11 23:00:00 13.1 4 Sudoeste 8 Sudoeste 0 1021.2 0.4 90
2020-03-11 22:00:00 14.3 8 Sudoeste 14 Oeste 0 1021.1 0.7 90
2020-03-11 21:00:00 14.7 8 Oeste 21 Oeste 0 1020.9 0.8 89
2020-03-11 20:00:00 14.9 12 Sudoeste 20 Sudoeste 0 1020.8 1 87
2020-03-11 19:00:00 15.9 11 Sudoeste 26 Sudoeste 0 1020.4 0.3 83
2020-03-11 18:00:00 17.4 13 Sudoeste 37 Sudoeste 0 1020.1 -0.2 77
2020-03-11 17:00:00 16.8 29 Sudoeste 39 Sudoeste 0 1019.8 -1 83
2020-03-11 16:00:00 17.3 29 Sudoeste 40 Sudoeste 0 1020.1 -1.5 82
2020-03-11 15:00:00 17.5 30 Sudoeste 41 Sudoeste 0 1020.3 -1.7 81
2020-03-11 14:00:00 17.5 32 Sudoeste 40 Sudoeste 0 1020.8 -1.3 80
2020-03-11 13:00:00 17.6 30 Sudoeste 36 Sudoeste 0 1021.6 -0.5 79
2020-03-11 12:00:00 17.5 26 Sudoeste 32 Sudoeste 0 1022 0.2 80
2020-03-11 11:00:00 17.4 21 Sudoeste 26 Sudoeste 0 1022.1 0.8 80
2020-03-11 10:00:00 16.8 13 Sur 16 Sur 0 1022.1 1.2 80
2020-03-11 09:00:00 15.8 6 Sudoeste 10 Oeste 0 1021.8 1.3 82
2020-03-11 08:00:00 13.4 5 Sudoeste 14 Oeste 0 1021.3 1.2 87
2020-03-11 07:00:00 12.9 4 Sudoeste 10 Sudoeste 0 1020.9 0.5 85
2020-03-11 06:00:00 13.1 6 Oeste 22 Oeste 0 1020.5 -0.5 83
2020-03-11 05:00:00 13.6 13 Oeste 23 Oeste 0 1020.1 -1.4 83
2020-03-11 04:00:00 13.5 14 Oeste 28 Noroeste 0 1020.4 -1.3 86
2020-03-11 03:00:00 13.6 16 Oeste 30 Oeste 0 1021 -1.1 87
2020-03-11 02:00:00 13.7 16 Oeste 35 Oeste 0 1021.5 -0.7 87
2020-03-11 01:00:00 13.7 18 Oeste 30 Oeste 0 1021.7 -0.5 88
2020-03-11 00:00:00 13.7 14 Oeste 30 Oeste 0 1022.1 -0.2 85
2020-03-10 23:00:00 13.8 17 Oeste 31 Oeste 0 1022.2 0.1 83
2020-03-10 22:00:00 13.7 16 Oeste 29 Oeste 0 1022.2 0.4 82
2020-03-10 21:00:00 13.5 13 Oeste 27 Oeste 0 1022.3 1.1 80
2020-03-10 20:00:00 13.8 16 Oeste 33 Oeste 0 1022.1 0.7 77
2020-03-10 19:00:00 14.2 16 Oeste 38 Oeste 0 1021.8 -0.1 74
2020-03-10 18:00:00 14.9 25 Oeste 41 Oeste 0 1021.2 -1.2 71
2020-03-10 17:00:00 16.3 22 Oeste 41 Oeste 0 1021.4 -1.3 62
2020-03-10 16:00:00 17.1 20 Oeste 38 Oeste 0 1021.9 -1.4 57
2020-03-10 15:00:00 16.6 20 Oeste 36 Oeste 0 1022.4 -1.5 57
2020-03-10 14:00:00 16.3 20 Oeste 39 Oeste 0 1022.7 -0.9 57
2020-03-10 13:00:00 16.2 20 Sudoeste 26 Sudoeste 0 1023.3 -0.2 65
2020-03-10 12:00:00 15.8 10 Sur 14 Sur 0 1023.9 1 62
2020-03-10 11:00:00 16.5 7 Sudeste 13 Este 0 1023.6 1.4 60
2020-03-10 10:00:00 15.3 7 Nordeste 15 Nordeste 0 1023.5 2.1 62
2020-03-10 09:00:00 13.8 8 Nordeste 18 Nordeste 0 1022.9 1.9 67
2020-03-10 08:00:00 11.5 9 Norte 21 Nordeste 0 1022.2 1.6 71
2020-03-10 07:00:00 10.4 10 Norte 18 Norte 0 1021.4 1.4 75
2020-03-10 06:00:00 10.9 12 Norte 23 Nordeste 0 1021 0.6 73
2020-03-10 05:00:00 11 11 Norte 24 Norte 0 1020.6 0.1 72
2020-03-10 04:00:00 11.5 13 Norte 26 Norte 0 1020 -0.6 69
2020-03-10 03:00:00 11.6 12 Nordeste 27 Nordeste 0 1020.4 -0.1 67
2020-03-10 02:00:00 12.2 14 Nordeste 29 Nordeste 0 1020.5 0.3 67
2020-03-10 01:00:00 10.7 7 Norte 13 Norte 0 1020.6 0.5 81
2020-03-10 00:00:00 10.2 8 Norte 11 Norte 0 1020.5 1.4 86
2020-03-09 23:00:00 9.7 8 Norte 11 Norte 0 1020.2 1.6 86
2020-03-09 22:00:00 9.8 9 Norte 11 Norte 0 1020.1 1.8 85
2020-03-09 21:00:00 10.4 5 Norte 9 Sudoeste 0 1019.1 1.2 82
2020-03-09 20:00:00 12.3 7 Sudoeste 11 Sudoeste 0 1018.6 1 76
2020-03-09 19:00:00 12.8 6 Sur 11 Sudoeste 0 1018.3 0.7 75
2020-03-09 18:00:00 13.4 7 Sur 10 Sur 0 1017.9 0.3 73
2020-03-09 17:00:00 13.7 6 Sur 10 Sur 0 1017.6 -0.4 73
2020-03-09 16:00:00 13.3 7 Este 25 Este 0 1017.6 -0.3 72
2020-03-09 15:00:00 13.6 15 Este 24 Este 0 1017.6 -0.5 73
2020-03-09 14:00:00 13.6 19 Este 40 Este 0 1018 0.1 76
2020-03-09 13:00:00 16.9 21 Nordeste 39 Este 0 1017.9 0.3 65
2020-03-09 12:00:00 17.3 7 Sudeste 14 Sudeste 0 1018.1 0.4 68
2020-03-09 11:00:00 16.2 9 Este 13 Este 0 1017.9 0.4 75
2020-03-09 10:00:00 15.1 7 Nordeste 14 Norte 0 1017.6 0.7 78
2020-03-09 09:00:00 12.2 6 Norte 10 Norte 0 1017.7 0.8 85
2020-03-09 08:00:00 10.7 8 Norte 11 Norte 0 1017.5 0.6 90
2020-03-09 07:00:00 10.1 9 Norte 13 Noroeste 0 1016.9 0 91
2020-03-09 06:00:00 10.5 6 Nordeste 10 Norte 0 1016.9 -0.7 89
2020-03-09 05:00:00 11.1 5 Norte 8 Sudoeste 0 1016.9 -1 88
2020-03-09 04:00:00 13.1 5 Sur 10 Sudoeste 0 1016.9 -1.1 85
2020-03-09 03:00:00 13 3 Oeste 11 Noroeste 0 1017.6 -1 81
2020-03-09 02:00:00 13.4 6 Noroeste 21 Oeste 0 1017.9 -1.3 81
2020-03-09 01:00:00 13.7 11 Oeste 24 Noroeste 0 1018 -1.4 84
2020-03-09 00:00:00 13.7 13 Oeste 24 Noroeste 0 1018.6 -1 84
2020-03-08 23:00:00 13.2 12 Oeste 24 Noroeste 0 1019.2 -0.4 82
2020-03-08 22:00:00 13.5 13 Noroeste 26 Oeste 0 1019.4 -0.2 86
2020-03-08 21:00:00 13.4 12 Oeste 22 Oeste 0 1019.6 0.6 84
2020-03-08 20:00:00 13.9 5 Oeste 21 Oeste 0 1019.6 0.9 79
2020-03-08 19:00:00 14.9 15 Oeste 31 Oeste 0 1019.6 0.9 70
2020-03-08 18:00:00 17.1 19 Oeste 30 Oeste 0 1019 0.2 47
2020-03-08 17:00:00 18.4 18 Oeste 37 Oeste 0 1018.7 -1 46
2020-03-08 16:00:00 18.6 22 Oeste 44 Sudoeste 0 1018.7 -1.9 46
2020-03-08 15:00:00 17.4 35 Sudoeste 47 Sudoeste 0 1018.8 -2.6 68
2020-03-08 14:00:00 17.2 34 Sudoeste 47 Sudoeste 0 1019.7 -2 71
2020-03-08 13:00:00 17.2 31 Sudoeste 41 Sudoeste 0 1020.6 -1.1 72
2020-03-08 12:00:00 17.1 23 Sudoeste 33 Sudoeste 0 1021.4 -0.1 71
2020-03-08 11:00:00 17.6 8 Sudoeste 21 Sudoeste 0 1021.7 0.7 54
2020-03-08 10:00:00 15.6 17 Sudoeste 21 Sudoeste 0 1021.7 1.2 71
2020-03-08 09:00:00 13.9 8 Sudoeste 11 Sudoeste 0 1021.5 1 72
2020-03-08 08:00:00 10.1 5 Oeste 9 Oeste 0 1021 0.5 77
2020-03-08 07:00:00 9.4 4 Noroeste 6 Noroeste 0 1020.5 -0.6 78
2020-03-08 06:00:00 10.2 3 Noroeste 7 Sudoeste 0 1020.5 -1.1 80
2020-03-08 05:00:00 10.4 4 Sudoeste 6 Sudoeste 0 1020.5 -1.4 75
2020-03-08 04:00:00 10.8 4 Noroeste 9 Noroeste 0 1021.1 -1 76
2020-03-08 03:00:00 10.1 7 Norte 12 Norte 0 1021.6 -0.7 77
2020-03-08 02:00:00 9.7 8 Norte 12 Norte 0 1021.9 -0.1 72
2020-03-08 01:00:00 8.6 10 Norte 12 Norte 0 1022.1 0.9 76
2020-03-08 00:00:00 10.5 8 Nordeste 11 Nordeste 0 1022.3 1.5 81
2020-03-07 23:00:00 10 5 Noroeste 11 Oeste 0 1022 1.7 78
2020-03-07 22:00:00 10.5 4 Oeste 9 Oeste 0 1021.2 1.6 73
2020-03-07 21:00:00 10.4 5 Noroeste 8 Noroeste 0 1020.8 2.2 72
2020-03-07 20:00:00 11.5 5 Oeste 15 Sudoeste 0 1020.3 2.1 69
2020-03-07 19:00:00 12.4 11 Sudoeste 28 Sudoeste 0 1019.6 1.5 63
2020-03-07 18:00:00 14.1 8 Sudeste 19 Sudeste 0 1018.6 0.9 61
2020-03-07 17:00:00 14.1 12 Este 28 Este 0 1018.2 0.2 59
2020-03-07 16:00:00 14.2 18 Este 30 Este 0 1018.1 0.1 57
2020-03-07 15:00:00 14.6 21 Este 32 Este 0 1017.7 -0.5 52
2020-03-07 14:00:00 14.7 10 Sur 19 Sur 0 1018 0.1 53
2020-03-07 13:00:00 15.3 8 Sudeste 17 Sudeste 0 1018 0.5 52
2020-03-07 12:00:00 14.1 10 Norte 27 Noroeste 0 1018.2 1.3 48
2020-03-07 11:00:00 15.3 13 Noroeste 27 Noroeste 0 1017.9 1.8 47
2020-03-07 10:00:00 13.3 12 Norte 24 Noroeste 0 1017.5 2.4 54
2020-03-07 09:00:00 11.7 12 Norte 21 Noroeste 0 1016.9 2.8 62
2020-03-07 08:00:00 9.3 15 Norte 26 Norte 0 1016.1 2.8 67
2020-03-07 07:00:00 9.5 14 Norte 25 Norte 0 1015.1 1.9 66
2020-03-07 06:00:00 9.7 18 Norte 33 Norte 0 1014.1 1.1 66
2020-03-07 05:00:00 9.5 13 Norte 25 Norte 0 1013.3 0.6 63
2020-03-07 04:00:00 9.9 15 Norte 25 Norte 0 1013.2 0.8 60
2020-03-07 03:00:00 10.1 15 Norte 29 Norte 0 1013 1.2 60
2020-03-07 02:00:00 9.4 11 Norte 30 Norte 0 1012.7 1 61
2020-03-07 01:00:00 10.6 20 Norte 42 Norte 0 1012.4 1.1 57
2020-03-07 00:00:00 10.7 15 Noroeste 33 Noroeste 0 1011.8 1.8 55
2020-03-06 23:00:00 11.2 14 Noroeste 37 Norte 0 1011.7 2.7 54
2020-03-06 22:00:00 12.1 19 Norte 44 Noroeste 0 1011.3 3.3 52
2020-03-06 21:00:00 12.3 18 Noroeste 51 Noroeste 0 1010 2.7 51
2020-03-06 20:00:00 13 29 Noroeste 59 Noroeste 0 1009 2.2 49
2020-03-06 19:00:00 13.1 35 Noroeste 57 Noroeste 0 1008 1 41
2020-03-06 18:00:00 13.8 32 Noroeste 58 Noroeste 0 1007.3 0.2 47
2020-03-06 17:00:00 14.1 35 Noroeste 63 Noroeste 0 1006.8 -0.2 45
2020-03-06 16:00:00 15.7 35 Noroeste 57 Noroeste 0 1007 -0.2 40
2020-03-06 15:00:00 15.3 21 Noroeste 52 Noroeste 0 1007.1 -0.5 44
2020-03-06 14:00:00 17.1 18 Noroeste 53 Noroeste 0 1007 -1.3 46
2020-03-06 13:00:00 17.1 27 Noroeste 43 Norte 0 1007.2 -1.4 38
2020-03-06 12:00:00 17.8 22 Noroeste 45 Norte 0 1007.6 -0.9 39
2020-03-06 11:00:00 17 21 Noroeste 37 Noroeste 0 1008.3 0.3 42
2020-03-06 10:00:00 16.1 16 Noroeste 34 Oeste 0 1008.6 0.9 51
2020-03-06 09:00:00 14.7 14 Noroeste 36 Noroeste 0 1008.5 1.1 51
2020-03-06 08:00:00 12.8 12 Noroeste 47 Noroeste 0 1008 0.7 54
2020-03-06 07:00:00 13.5 15 Noroeste 46 Noroeste 0 1007.7 0.6 46
2020-03-06 06:00:00 14 21 Noroeste 35 Noroeste 0 1007.4 0.3 43
2020-03-06 05:00:00 12.1 10 Oeste 26 Oeste 0 1007.3 -0.2 49
2020-03-06 04:00:00 12 8 Oeste 22 Sudoeste 0 1007.1 0 52
2020-03-06 03:00:00 13.5 9 Norte 18 Norte 0 1007.1 0.1 43
2020-03-06 02:00:00 14 7 Sur 17 Norte 0 1007.5 0.6 60
2020-03-06 01:00:00 14.5 9 Norte 22 Noroeste 0 1007.1 0.8 54
2020-03-06 00:00:00 13.6 3 Norte 12 Norte 0 1007 1.4 68
2020-03-05 23:00:00 14.9 8 Oeste 26 Oeste 0 1006.9 1.9 76
2020-03-05 22:00:00 15.6 15 Oeste 25 Oeste 0 1006.3 2.1 75
2020-03-05 21:00:00 15.8 15 Oeste 37 Oeste 0 1005.6 1.7 79
2020-03-05 20:00:00 16.1 24 Oeste 45 Oeste 0 1005 1.5 77
2020-03-05 19:00:00 16.5 28 Oeste 46 Oeste 0 1004.2 1.6 72
2020-03-05 18:00:00 17.2 21 Oeste 48 Oeste 0 1003.9 0.5 68
2020-03-05 17:00:00 18.7 33 Oeste 69 Oeste 0.4 1003.5 -1.4 61
2020-03-05 16:00:00 19.5 45 Oeste 86 Oeste 0.6 1002.6 -3.4 54
2020-03-05 15:00:00 19.9 38 Oeste 68 Oeste 0 1003.4 -3.5 53
2020-03-05 14:00:00 19.4 24 Sudoeste 54 Oeste 0 1004.9 -2.6 59
2020-03-05 13:00:00 19.6 24 Oeste 51 Oeste 0 1006 -2.2 58
2020-03-05 12:00:00 18.6 29 Oeste 49 Oeste 0 1006.9 -1.4 59
2020-03-05 11:00:00 18.2 24 Oeste 50 Oeste 0 1007.5 -0.7 65
2020-03-05 10:00:00 17.1 30 Oeste 44 Oeste 0 1008.2 -0.9 71
2020-03-05 09:00:00 15.8 24 Oeste 38 Oeste 0 1008.3 -1.3 83
2020-03-05 08:00:00 13.7 13 Oeste 22 Oeste 0 1008.2 -1.9 93
2020-03-05 07:00:00 13.8 9 Sudoeste 20 Oeste 0 1009.1 -1.6 93
2020-03-05 06:00:00 14 12 Oeste 22 Oeste 0 1009.6 -2.1 94
2020-03-05 05:00:00 13.7 15 Sudoeste 21 Oeste 0 1010.1 -2.5 93
2020-03-05 04:00:00 13.7 10 Sudoeste 16 Sudoeste 0 1010.7 -2.4 93
2020-03-05 03:00:00 14.3 8 Sudoeste 16 Oeste 0 1011.7 -2.3 92
2020-03-05 02:00:00 14.7 8 Oeste 18 Sudoeste 0 1012.6 -1.7 90
2020-03-05 01:00:00 14.8 9 Oeste 21 Oeste 0 1013.1 -1.4 90
2020-03-05 00:00:00 14.8 11 Oeste 23 Oeste 0 1014 -0.4 89
2020-03-04 23:00:00 15 16 Oeste 25 Oeste 0 1014.3 -0.1 88
2020-03-04 22:00:00 14.8 10 Oeste 22 Sudoeste 0 1014.5 0.5 88
2020-03-04 21:00:00 14.8 4 Sudoeste 16 Oeste 0 1014.4 0.5 86
2020-03-04 20:00:00 15.4 9 Oeste 22 Oeste 0 1014.4 0.8 83
2020-03-04 19:00:00 16.1 9 Noroeste 31 Oeste 0 1014 0 78
2020-03-04 18:00:00 16.9 19 Oeste 37 Sudoeste 0 1013.9 -0.8 73
2020-03-04 17:00:00 17.2 26 Sudoeste 39 Sudoeste 0 1013.6 -1.7 70
2020-03-04 16:00:00 16.8 26 Sudoeste 41 Sudoeste 0 1014 -2.3 74
2020-03-04 15:00:00 16.9 31 Sudoeste 42 Sudoeste 0 1014.7 -2 78
2020-03-04 14:00:00 16.2 30 Sudoeste 41 Sudoeste 0 1015.3 -1.3 75
2020-03-04 13:00:00 17.1 28 Sudoeste 36 Sudoeste 0 1016.3 -0.4 68
2020-03-04 12:00:00 16.8 21 Sudoeste 30 Sudoeste 0 1016.7 0.4 64
2020-03-04 11:00:00 16.2 20 Sudoeste 26 Sur 0 1016.6 0.7 64
2020-03-04 10:00:00 15.4 14 Sudoeste 21 Sudoeste 0 1016.7 1.5 66
2020-03-04 09:00:00 12.9 3 Sudoeste 8 Oeste 0 1016.3 1.6 76
2020-03-04 08:00:00 10 5 Oeste 8 Sudoeste 0 1015.9 1.9 80
2020-03-04 07:00:00 9.6 5 Noroeste 10 Norte 0 1015.2 1.9 83
2020-03-04 06:00:00 9.2 8 Norte 14 Norte 0 1014.7 2 82
2020-03-04 05:00:00 9.8 8 Norte 10 Norte 0 1014 2.3 83
2020-03-04 04:00:00 10.8 5 Norte 13 Oeste 0 1013.3 2.8 79
2020-03-04 03:00:00 11.9 4 Noroeste 17 Nordeste 0 1012.7 4 75
2020-03-04 02:00:00 12.7 6 Norte 27 Norte 0 1011.7 4.2 71
2020-03-04 01:00:00 14.7 19 Norte 46 Norte 0 1010.5 4.8 63
2020-03-04 00:00:00 16.7 27 Norte 44 Norte 0 1008.7 4.4 40
2020-03-03 23:00:00 17.4 30 Noroeste 58 Norte 0 1007.5 3.9 42
2020-03-03 22:00:00 18.3 32 Noroeste 67 Noroeste 0 1005.7 1.7 39
2020-03-03 21:00:00 16.4 27 Noroeste 65 Oeste 0 1004.3 -0.6 66
2020-03-03 20:00:00 16.6 32 Noroeste 68 Noroeste 0 1003.6 -1 62
2020-03-03 19:00:00 15.5 31 Oeste 67 Oeste 0 1004 -1.4 65
2020-03-03 18:00:00 15.8 30 Oeste 62 Oeste 0 1004.9 -1.9 66
2020-03-03 17:00:00 15.9 38 Oeste 72 Oeste 0.4 1004.6 -3.7 56
2020-03-03 16:00:00 16.6 38 Oeste 73 Oeste 0 1005.4 -5 55
2020-03-03 15:00:00 16.5 36 Oeste 69 Oeste 0 1006.8 -4.8 45
2020-03-03 14:00:00 16.1 28 Oeste 56 Oeste 0 1008.3 -4.2 50
2020-03-03 13:00:00 15.6 26 Oeste 52 Oeste 0 1010.4 -2.6 52
2020-03-03 12:00:00 14.7 15 Oeste 38 Oeste 0 1011.6 -1.1 57
2020-03-03 11:00:00 14.3 22 Oeste 41 Oeste 0 1012.5 -0.1 54
2020-03-03 10:00:00 13.4 13 Oeste 28 Noroeste 0 1013 0.4 52
2020-03-03 09:00:00 12.4 12 Oeste 32 Noroeste 0 1012.7 1.5 48
2020-03-03 08:00:00 11.7 12 Oeste 24 Noroeste 0 1012.6 2.2 46
2020-03-03 07:00:00 11.3 9 Oeste 34 Noroeste 0 1012.6 2.7 52
2020-03-03 06:00:00 11.7 20 Noroeste 55 Noroeste 0 1011.2 1.6 47
2020-03-03 05:00:00 12 27 Noroeste 67 Noroeste 0 1010.4 0.7 48
2020-03-03 04:00:00 12.3 33 Noroeste 67 Noroeste 0 1009.9 0.9 48
2020-03-03 03:00:00 12.1 36 Noroeste 59 Noroeste 0 1009.6 1 48
2020-03-03 02:00:00 12.2 37 Noroeste 68 Noroeste 0 1009.7 2.1 46
2020-03-03 01:00:00 12.6 38 Noroeste 63 Noroeste 0 1009 2.5 43
2020-03-03 00:00:00 12.7 39 Noroeste 73 Noroeste 0 1008.6 3 44
2020-03-02 23:00:00 12.8 38 Noroeste 67 Noroeste 0 1007.6 2.8 47
2020-03-02 22:00:00 13.2 31 Noroeste 55 Noroeste 0 1006.5 2.8 44
2020-03-02 21:00:00 13 23 Noroeste 44 Noroeste 0 1005.6 2.1 51
2020-03-02 20:00:00 13.2 22 Noroeste 42 Noroeste 0 1004.8 3.1 50
2020-03-02 19:00:00 14.1 20 Noroeste 39 Noroeste 0 1003.7 2.7 46
2020-03-02 18:00:00 15.2 21 Noroeste 48 Noroeste 0 1003.5 3.2 48
2020-03-02 17:00:00 15.4 17 Noroeste 46 Noroeste 0 1001.7 1.7 46
2020-03-02 16:00:00 16.5 21 Noroeste 44 Noroeste 0.2 1001 2.6 51
2020-03-02 15:00:00 15.5 21 Noroeste 45 Noroeste 0 1000.3 1.4 64
2020-03-02 14:00:00 14.4 19 Noroeste 71 Noroeste 1.2 1000 1.2 71
2020-03-02 13:00:00 17.8 43 Oeste 76 Oeste 0 998.4 -1.1 67
2020-03-02 12:00:00 17.8 49 Oeste 79 Oeste 0.2 998.9 -1.1 70
2020-03-02 11:00:00 16.6 39 Oeste 67 Oeste 0.2 998.8 -1.2 80
2020-03-02 10:00:00 15.7 30 Oeste 53 Oeste 0.2 999.5 -1.5 86
2020-03-02 09:00:00 14.8 19 Sudoeste 44 Sudoeste 1.4 1000 -1.6 90
2020-03-02 08:00:00 15.1 25 Sudoeste 57 Sudoeste 1.2 1000 -2.6 88
2020-03-02 07:00:00 15.3 18 Sudoeste 40 Sudoeste 0.4 1001 -2.7 88
2020-03-02 06:00:00 15.5 21 Sudoeste 46 Oeste 0 1001.6 -3.8 86
2020-03-02 05:00:00 15.6 21 Oeste 41 Sudoeste 0 1002.6 -3.9 82
2020-03-02 04:00:00 15.3 22 Sudoeste 40 Sudoeste 0 1003.7 -4.1 85
2020-03-02 03:00:00 15.1 16 Oeste 28 Oeste 0 1005.4 -2.9 83
2020-03-02 02:00:00 14.9 15 Sudoeste 28 Sudoeste 0 1006.5 -2.4 87
2020-03-02 01:00:00 15.3 23 Sudoeste 41 Sudoeste 0 1007.8 -2.3 87
2020-03-02 00:00:00 15.3 21 Sudoeste 35 Sudoeste 0 1008.3 -1.8 85